Time;durP1;ratioP1;P1;durP2;ratioP2;P2;SDS_P1;SDS_P2;PMS_P1;PMS_P2;Temp;Humidity;BMP_temperature;BMP_pressure;BME280_temperature;BME280_humidity;BME280_pressure;Samples;Min_cycle;Max_cycle;Signal;HPM_P1;HPM_P2
2023/01/03 00:00:51;;;;;;;5.70;1.95;;;;;;;13.53;56.95;101826.94;4989373;28;98968;-71
2023/01/03 00:03:17;;;;;;;5.10;2.10;;;;;;;13.60;56.90;101831.13;4983811;28;98853;-70
2023/01/03 00:05:45;;;;;;;6.25;1.90;;;;;;;13.48;57.26;101840.34;4984862;28;97325;-71
2023/01/03 00:08:14;;;;;;;4.63;1.60;;;;;;;13.84;56.37;101840.16;4988055;28;96899;-71
2023/01/03 00:10:41;;;;;;;4.25;1.30;;;;;;;13.87;56.05;101834.72;4985334;28;99641;-70
2023/01/03 00:13:06;;;;;;;3.08;1.40;;;;;;;13.99;55.56;101836.97;4978344;28;99417;-70
2023/01/03 00:15:34;;;;;;;;;;;;;;;13.92;55.65;101840.75;4983087;28;97290;-71
2023/01/03 00:18:00;;;;;;;3.38;1.80;;;;;;;13.37;57.55;101846.91;4983620;28;98762;-72
2023/01/03 00:20:27;;;;;;;5.03;1.55;;;;;;;13.23;58.28;101854.41;4985069;28;98829;-71
2023/01/03 00:22:53;;;;;;;3.22;1.80;;;;;;;13.66;57.22;101848.66;4981810;28;99232;-71
2023/01/03 00:25:21;;;;;;;4.35;1.67;;;;;;;13.97;56.05;101852.13;4981717;28;99117;-71
2023/01/03 00:27:47;;;;;;;7.07;1.40;;;;;;;13.93;55.93;101858.44;4978203;28;97165;-71
2023/01/03 00:30:14;;;;;;;4.00;1.75;;;;;;;13.74;56.35;101860.81;4985380;28;99106;-71
2023/01/03 00:32:40;;;;;;;5.50;1.70;;;;;;;13.86;55.96;101862.19;4990584;28;98375;-70
2023/01/03 00:35:08;;;;;;;2.85;1.38;;;;;;;14.17;55.14;101875.41;4984823;28;96865;-73
2023/01/03 00:37:34;;;;;;;4.45;1.50;;;;;;;14.19;54.87;101871.75;4975863;28;97278;-71
2023/01/03 00:40:01;;;;;;;5.35;1.70;;;;;;;14.23;54.82;101885.84;4986444;28;100869;-72
2023/01/03 00:42:29;;;;;;;3.78;1.55;;;;;;;14.31;54.56;101889.09;4985532;28;98852;-71
2023/01/03 00:44:55;;;;;;;5.32;1.73;;;;;;;14.34;54.47;101889.00;4985693;28;97221;-72
2023/01/03 00:47:21;;;;;;;4.38;1.92;;;;;;;14.19;54.44;101887.72;4978533;28;96856;-72
2023/01/03 00:49:48;;;;;;;2.97;1.40;;;;;;;14.37;54.26;101899.56;4983804;28;101935;-70
2023/01/03 00:52:14;;;;;;;4.43;1.45;;;;;;;14.38;54.41;101897.75;4986891;28;98922;-69
2023/01/03 00:54:41;;;;;;;4.88;1.25;;;;;;;13.83;55.58;101910.13;4981467;28;96833;-72
2023/01/03 00:57:07;;;;;;;7.07;1.83;;;;;;;13.68;56.19;101906.16;4981667;28;98662;-72
2023/01/03 00:59:35;;;;;;;3.83;1.30;;;;;;;13.99;55.64;101911.38;4980414;28;98920;-71
2023/01/03 01:02:01;;;;;;;3.97;1.23;;;;;;;13.83;55.16;101910.13;4983619;28;99149;-72
2023/01/03 01:04:30;;;;;;;3.58;1.70;;;;;;;13.84;55.15;101917.19;4983622;28;98809;-72
2023/01/03 01:06:58;;;;;;;4.00;1.15;;;;;;;13.57;55.21;101916.22;4972526;28;97019;-72
2023/01/03 01:09:27;;;;;;;2.45;1.20;;;;;;;13.40;56.09;101934.41;4978177;28;98285;-72
2023/01/03 01:11:55;;;;;;;2.22;1.00;;;;;;;13.17;56.24;101937.72;4987031;28;98835;-74
2023/01/03 01:14:24;;;;;;;3.90;1.30;;;;;;;13.31;55.93;101934.69;4983485;28;97849;-74
2023/01/03 01:16:55;;;;;;;2.97;1.20;;;;;;;13.45;55.43;101945.81;4979058;28;97866;-74
2023/01/03 01:19:24;;;;;;;2.88;1.30;;;;;;;13.42;55.39;101946.75;4981409;28;102249;-74
2023/01/03 01:21:51;;;;;;;2.15;1.00;;;;;;;13.43;55.06;101950.28;4992657;28;101520;-72
2023/01/03 01:24:18;;;;;;;3.08;1.30;;;;;;;13.22;55.34;101953.50;4978371;28;97109;-72
2023/01/03 01:26:44;;;;;;;6.25;1.33;;;;;;;13.40;54.96;101966.28;4986602;28;97197;-72
2023/01/03 01:29:12;;;;;;;2.72;1.10;;;;;;;13.34;54.98;101972.63;4986920;28;99311;-72
2023/01/03 01:31:39;;;;;;;4.28;1.20;;;;;;;12.97;55.88;101964.75;4986856;28;98694;-73
2023/01/03 01:34:07;;;;;;;5.32;1.42;;;;;;;13.13;55.37;101965.25;4979580;28;97143;-70
2023/01/03 01:36:36;;;;;;;4.07;1.25;;;;;;;13.10;55.24;101971.47;4986659;28;96949;-69
2023/01/03 01:39:05;;;;;;;4.03;1.10;;;;;;;12.69;55.72;101972.53;4989686;28;97665;-70
2023/01/03 01:44:50;;;;;;;1.90;0.90;;;;;;;12.73;55.34;101983.97;4988250;28;97019;-70
2023/01/03 01:47:26;;;;;;;3.35;1.00;;;;;;;12.27;56.25;101984.19;4990712;28;96841;-70
2023/01/03 01:49:58;;;;;;;2.10;0.93;;;;;;;12.63;54.93;101987.72;4978493;28;98819;-70
2023/01/03 01:52:25;;;;;;;7.57;1.20;;;;;;;12.36;55.18;102003.38;4997223;28;99415;-71
2023/01/03 01:54:54;;;;;;;3.45;0.82;;;;;;;12.24;55.54;102005.44;4984467;28;97921;-71
2023/01/03 01:57:24;;;;;;;3.92;0.93;;;;;;;12.29;54.77;102003.56;4989810;28;99584;-70
2023/01/03 01:59:50;;;;;;;3.03;1.00;;;;;;;12.53;54.20;101999.47;4988638;28;99165;-69
2023/01/03 02:02:20;;;;;;;2.70;0.93;;;;;;;12.29;54.80;102011.50;4988620;28;98840;-70
2023/01/03 02:04:49;;;;;;;5.15;1.27;;;;;;;12.47;53.90;102010.22;4987305;28;96721;-70
2023/01/03 02:07:19;;;;;;;3.38;0.90;;;;;;;12.91;52.98;102009.16;4993238;28;97730;-69
2023/01/03 02:09:48;;;;;;;4.90;0.80;;;;;;;12.43;53.72;102011.19;4988763;28;98861;-70
2023/01/03 02:15:17;;;;;;;3.97;1.20;;;;;;;12.10;54.35;102016.34;4975281;28;100557;-69
2023/01/03 02:17:53;;;;;;;6.03;0.90;;;;;;;12.33;53.45;102014.06;4995815;28;99066;-70
2023/01/03 02:20:24;;;;;;;;;;;;;;;12.56;52.76;102018.81;4996067;28;98928;-69
2023/01/03 02:23:21;;;;;;;5.32;0.90;;;;;;;12.48;52.65;102018.13;4993352;28;101783;-70
2023/01/03 02:26:13;;;;;;;3.25;1.20;;;;;;;12.18;53.65;102025.00;4982482;28;97832;-69
2023/01/03 02:29:18;;;;;;;6.40;1.20;;;;;;;12.37;52.99;102026.34;4992593;28;96879;-70
2023/01/03 02:31:53;;;;;;;2.67;0.70;;;;;;;12.40;52.77;102040.44;4989066;28;98911;-69
2023/01/03 02:34:27;;;;;;;3.45;1.00;;;;;;;12.65;52.07;102041.63;4990414;28;98891;-69
2023/01/03 02:37:06;;;;;;;4.45;2.15;;;;;;;12.52;52.33;102056.06;4991861;28;98995;-70
2023/01/03 02:39:39;;;;;;;2.47;0.80;;;;;;;12.32;52.38;102051.19;4987635;28;96932;-70
2023/01/03 02:45:04;;;;;;;5.03;0.90;;;;;;;12.23;52.48;102064.66;4987856;28;98403;-70
2023/01/03 02:47:39;;;;;;;2.60;0.90;;;;;;;12.14;52.56;102059.56;4983193;28;96875;-70
2023/01/03 02:50:10;;;;;;;3.88;1.00;;;;;;;12.22;52.37;102055.81;4990005;28;96813;-69
2023/01/03 02:52:40;;;;;;;5.07;1.00;;;;;;;12.01;52.64;102053.66;4980685;28;98231;-68
2023/01/03 02:55:13;;;;;;;6.07;0.80;;;;;;;11.87;52.88;102061.00;4986161;28;98892;-69
2023/01/03 02:57:44;;;;;;;2.78;1.00;;;;;;;11.85;52.70;102062.78;4981844;28;97540;-69
2023/01/03 03:00:14;;;;;;;4.20;1.08;;;;;;;11.98;51.71;102061.63;4988919;28;96816;-70
2023/01/03 03:02:50;;;;;;;5.18;0.88;;;;;;;11.51;51.75;102066.06;4986941;28;97983;-70
2023/01/03 03:05:22;;;;;;;6.15;1.10;;;;;;;11.67;51.44;102073.72;4987678;28;98799;-71
2023/01/03 03:07:49;;;;;;;3.90;1.02;;;;;;;11.77;50.89;102086.78;4982193;28;97239;-70
2023/01/03 03:13:13;;;;;;;3.13;0.90;;;;;;;11.59;51.01;102087.09;4978057;28;97214;-70
2023/01/03 03:15:46;;;;;;;3.13;0.93;;;;;;;11.21;51.75;102084.25;4987042;28;101583;-70
2023/01/03 03:18:18;;;;;;;2.13;0.85;;;;;;;11.40;51.35;102077.75;4979092;28;97760;-69
2023/01/03 03:26:21;;;;;;;7.45;1.35;;;;;;;10.99;52.73;102091.66;4981611;28;97117;-69
2023/01/03 03:28:52;;;;;;;3.50;1.20;;;;;;;10.94;52.88;102090.88;4977990;28;96941;-69
2023/01/03 03:31:23;;;;;;;6.57;1.20;;;;;;;11.10;52.41;102092.34;4984005;28;97875;-69
2023/01/03 03:33:56;;;;;;;8.43;1.50;;;;;;;11.08;52.40;102088.88;4986502;28;99362;-69
2023/01/03 03:36:32;;;;;;;6.07;1.25;;;;;;;11.21;51.84;102090.41;4983287;28;99128;-69
2023/01/03 03:39:00;;;;;;;3.42;1.08;;;;;;;11.33;52.11;102098.16;4978184;28;97977;-70
2023/01/03 03:47:24;;;;;;;3.17;1.20;;;;;;;11.37;51.71;102102.47;4985521;28;97102;-70
2023/01/03 03:49:55;;;;;;;5.00;1.02;;;;;;;11.61;50.87;102103.84;4984722;28;96797;-71
2023/01/03 03:52:27;;;;;;;5.90;1.63;;;;;;;11.67;50.73;102108.13;4992031;28;96789;-70
2023/01/03 03:55:11;;;;;;;5.75;1.38;;;;;;;11.62;50.99;102110.00;4983277;28;102058;-70
2023/01/03 03:57:43;;;;;;;4.13;1.08;;;;;;;11.47;51.28;102114.66;4984160;28;99560;-71
2023/01/03 04:00:15;;;;;;;8.85;1.27;;;;;;;11.63;51.23;102119.66;4986325;28;97240;-70
2023/01/03 04:02:45;;;;;;;4.47;1.10;;;;;;;11.62;51.23;102123.25;4984200;28;96838;-69
2023/01/03 04:05:17;;;;;;;9.10;1.20;;;;;;;11.54;51.35;102126.03;4987015;28;99356;-70
2023/01/03 04:07:44;;;;;;;5.40;0.90;;;;;;;11.28;52.23;102130.88;4989253;28;98827;-70
2023/01/03 04:10:12;;;;;;;3.70;1.73;;;;;;;11.31;52.31;102128.16;4987059;28;96967;-70
2023/01/03 04:12:39;;;;;;;6.40;1.08;;;;;;;11.12;52.87;102132.88;4977298;28;97618;-69
2023/01/03 04:15:07;;;;;;;6.82;1.30;;;;;;;11.26;53.36;102130.03;4975797;28;99464;-69
2023/01/03 04:17:33;;;;;;;4.50;1.00;;;;;;;11.36;52.64;102136.91;4986250;28;99347;-71
2023/01/03 04:20:00;;;;;;;7.47;0.90;;;;;;;11.04;53.55;102145.34;4991115;28;96948;-71
2023/01/03 04:22:27;;;;;;;4.53;1.27;;;;;;;11.03;53.60;102143.59;4984005;28;96899;-69
2023/01/03 04:24:54;;;;;;;8.10;1.70;;;;;;;10.78;54.23;102159.84;4986283;28;99041;-71
2023/01/03 04:27:20;;;;;;;6.45;1.27;;;;;;;11.03;53.77;102156.81;4990216;28;100660;-72
2023/01/03 04:29:47;;;;;;;5.20;1.35;;;;;;;11.15;53.26;102148.72;4983282;28;96867;-70
2023/01/03 04:32:13;;;;;;;6.20;1.40;;;;;;;11.24;52.83;102159.16;4992805;28;97350;-70
2023/01/03 04:34:40;;;;;;;6.72;1.10;;;;;;;11.03;53.47;102164.75;4985734;28;98935;-69
2023/01/03 04:37:06;;;;;;;5.32;1.15;;;;;;;11.14;53.52;102163.72;4986006;28;99132;-70
2023/01/03 04:39:34;;;;;;;2.40;1.00;;;;;;;11.00;53.40;102171.00;4984971;28;96911;-69
2023/01/03 04:44:00;;;;;;;3.85;1.25;;;;;;;11.08;53.39;102173.53;4983052;28;96868;-70
2023/01/03 04:44:46;;;;;;;;;;;;;;;10.90;53.56;102182.56;4990367;28;99035;-70
2023/01/03 04:47:13;;;;;;;6.78;1.23;;;;;;;10.90;53.52;102193.16;4984610;28;100509;-69
2023/01/03 04:49:39;;;;;;;3.30;1.20;;;;;;;10.79;53.86;102195.97;4982287;28;96875;-70
2023/01/03 04:52:05;;;;;;;6.15;1.45;;;;;;;10.68;54.06;102200.53;4993204;28;97035;-68
2023/01/03 04:54:35;;;;;;;6.32;1.20;;;;;;;10.59;54.36;102199.75;4984591;28;99811;-68
2023/01/03 04:57:01;;;;;;;6.05;0.90;;;;;;;10.90;53.85;102211.66;4983438;28;98860;-69
2023/01/03 04:59:28;;;;;;;5.47;1.25;;;;;;;10.23;55.28;102203.72;4984042;28;97359;-68
2023/01/03 05:01:54;;;;;;;5.00;1.48;;;;;;;10.45;55.13;102207.84;4984734;28;96965;-68
2023/01/03 05:04:21;;;;;;;5.60;1.50;;;;;;;10.82;54.18;102216.22;4982240;28;98888;-68
2023/01/03 05:06:47;;;;;;;9.48;1.60;;;;;;;10.94;54.20;102217.81;4986710;28;99119;-69
2023/01/03 05:09:14;;;;;;;6.53;1.50;;;;;;;11.04;53.60;102219.41;4991412;28;97737;-69
2023/01/03 05:11:41;;;;;;;5.10;1.52;;;;;;;11.17;53.30;102218.34;4988126;28;98879;-69
2023/01/03 05:14:08;;;;;;;8.55;2.05;;;;;;;10.73;54.49;102219.84;4989354;28;99085;-70
2023/01/03 05:16:35;;;;;;;2.35;0.95;;;;;;;10.85;54.57;102228.50;4985553;28;98800;-69
2023/01/03 05:19:01;;;;;;;5.47;1.45;;;;;;;10.93;54.34;102232.81;4985338;28;97868;-70
2023/01/03 05:27:00;;;;;;;5.07;1.85;;;;;;;10.86;55.46;102231.13;4994078;28;99346;-70
2023/01/03 05:29:29;;;;;;;6.38;1.40;;;;;;;10.73;55.96;102233.06;4994671;28;98780;-70
2023/01/03 05:31:56;;;;;;;5.53;1.45;;;;;;;10.50;56.79;102229.81;4990199;28;96982;-71
2023/01/03 05:34:22;;;;;;;12.57;1.77;;;;;;;10.54;56.52;102228.03;4986148;28;101518;-69
2023/01/03 05:36:49;;;;;;;8.98;1.73;;;;;;;10.60;56.78;102226.19;4987909;28;99608;-70
2023/01/03 05:39:15;;;;;;;4.72;2.05;;;;;;;10.65;56.57;102231.41;4991099;28;96858;-70
2023/01/03 05:42:00;;;;;;;7.10;1.90;;;;;;;10.64;56.64;102232.28;4991332;28;97636;-72
2023/01/03 05:44:29;;;;;;;8.23;2.00;;;;;;;10.66;56.55;102239.31;4986176;28;99196;-70
2023/01/03 05:46:55;;;;;;;2.90;1.60;;;;;;;10.43;56.77;102235.22;4986681;28;102133;-69
2023/01/03 05:49:21;;;;;;;5.68;1.50;;;;;;;10.38;57.31;102236.09;4988462;28;96811;-71
2023/01/03 05:51:48;;;;;;;10.35;1.55;;;;;;;10.62;56.44;102248.19;4997104;28;96977;-70
2023/01/03 05:54:15;;;;;;;8.45;1.83;;;;;;;10.58;56.56;102238.53;4986347;28;99240;-70
2023/01/03 05:56:42;;;;;;;5.07;1.67;;;;;;;10.60;56.24;102249.97;4990280;28;97771;-71
2023/01/03 05:59:09;;;;;;;6.40;1.42;;;;;;;10.54;56.69;102244.75;4988245;28;96780;-69
2023/01/03 06:01:37;;;;;;;7.80;1.80;;;;;;;10.30;57.11;102245.91;4993484;28;96841;-69
2023/01/03 06:04:03;;;;;;;3.53;1.20;;;;;;;10.17;57.23;102259.25;4986269;28;98963;-69
2023/01/03 06:06:30;;;;;;;6.47;1.70;;;;;;;10.30;57.07;102259.13;4987338;28;99362;-70
2023/01/03 06:08:56;;;;;;;4.15;1.38;;;;;;;10.08;57.81;102259.31;4986061;28;97051;-69
2023/01/03 06:11:23;;;;;;;6.40;1.40;;;;;;;10.08;57.60;102264.59;4991528;28;96871;-70
2023/01/03 06:13:49;;;;;;;5.28;1.50;;;;;;;10.16;57.64;102257.47;4988141;28;99290;-70
2023/01/03 06:19:05;;;;;;;9.60;1.50;;;;;;;10.25;56.91;102271.47;4991951;28;97719;-70
2023/01/03 06:21:32;;;;;;;4.25;2.22;;;;;;;9.99;57.41;102271.69;4988923;28;98567;-70
2023/01/03 06:23:58;;;;;;;4.18;1.60;;;;;;;10.08;57.29;102276.03;4990742;28;97779;-70
2023/01/03 06:26:25;;;;;;;4.90;2.05;;;;;;;10.03;57.27;102279.59;4989408;28;99554;-69
2023/01/03 06:28:52;;;;;;;8.20;1.63;;;;;;;10.21;56.92;102287.38;4990804;28;97951;-70
2023/01/03 06:31:19;;;;;;;4.50;1.50;;;;;;;10.28;56.34;102275.88;4984940;28;98310;-70
2023/01/03 06:33:45;;;;;;;10.38;1.70;;;;;;;10.21;56.47;102280.34;4982547;28;99576;-72
2023/01/03 06:36:15;;;;;;;5.80;1.77;;;;;;;10.25;56.56;102284.69;4989287;28;99102;-69
2023/01/03 06:38:42;;;;;;;10.18;1.67;;;;;;;10.29;56.50;102290.84;4984785;28;97016;-69
2023/01/03 06:41:09;;;;;;;7.80;2.00;;;;;;;10.35;56.54;102288.13;4991515;28;96925;-71
2023/01/03 06:43:35;;;;;;;10.75;2.13;;;;;;;10.11;57.10;102283.06;4986614;28;99290;-69
2023/01/03 06:54:20;;;;;;;8.10;2.15;;;;;;;9.81;58.87;102298.25;4987905;28;97202;-70
2023/01/03 06:56:47;;;;;;;12.15;2.85;;;;;;;9.43;60.07;102303.81;4985390;28;97688;-68
2023/01/03 06:59:14;;;;;;;7.35;2.30;;;;;;;9.80;59.29;102308.81;4988087;28;96769;-69
2023/01/03 07:01:40;;;;;;;8.05;2.33;;;;;;;9.82;59.04;102315.84;4988594;28;98672;-70
2023/01/03 07:04:07;;;;;;;11.45;2.53;;;;;;;9.92;58.95;102327.22;4987994;28;98951;-69
2023/01/03 07:06:34;;;;;;;10.80;2.67;;;;;;;9.67;59.68;102323.00;4989290;28;98256;-69
2023/01/03 07:09:01;;;;;;;9.48;2.42;;;;;;;9.92;58.69;102330.72;4987667;28;97235;-69
2023/01/03 07:11:27;;;;;;;9.55;2.72;;;;;;;9.93;58.57;102324.56;4987945;28;97002;-69
2023/01/03 07:13:59;;;;;;;8.40;2.67;;;;;;;10.07;58.58;102331.50;4988569;28;99259;-69
2023/01/03 07:16:28;;;;;;;6.22;2.50;;;;;;;9.89;59.03;102336.06;4986601;28;99196;-71
2023/01/03 07:18:55;;;;;;;14.07;4.18;;;;;;;9.98;58.48;102343.00;4982110;28;96864;-69
2023/01/03 07:21:22;;;;;;;7.53;2.97;;;;;;;10.06;58.42;102340.31;4991699;28;96983;-70
2023/01/03 07:23:52;;;;;;;12.05;2.70;;;;;;;10.12;58.09;102340.25;4985071;28;99296;-70
2023/01/03 07:26:18;;;;;;;8.73;3.38;;;;;;;10.21;58.06;102341.09;4989248;28;99220;-69
2023/01/03 07:28:45;;;;;;;5.57;2.78;;;;;;;10.30;57.57;102340.16;4992517;28;96809;-70
2023/01/03 07:31:12;;;;;;;8.93;2.83;;;;;;;10.28;57.49;102350.72;4984894;28;97322;-68
2023/01/03 07:33:39;;;;;;;8.98;2.70;;;;;;;10.33;57.04;102348.91;4989425;28;99429;-69
2023/01/03 07:36:08;;;;;;;8.63;2.40;;;;;;;10.41;56.75;102353.25;4990416;28;97520;-69
2023/01/03 07:38:35;;;;;;;8.13;2.40;;;;;;;10.57;56.01;102354.84;4989784;28;96785;-68
2023/01/03 07:41:03;;;;;;;6.68;2.08;;;;;;;10.31;56.85;102363.88;4993027;28;99473;-72
2023/01/03 07:43:38;;;;;;;10.27;2.40;;;;;;;10.47;56.64;102362.00;4981407;28;98784;-70
2023/01/03 07:46:07;;;;;;;6.75;2.45;;;;;;;10.29;56.92;102365.69;4989086;28;100092;-71
2023/01/03 07:48:34;;;;;;;14.15;2.42;;;;;;;10.42;56.72;102363.81;4985089;28;97132;-69
2023/01/03 07:51:01;;;;;;;7.93;2.50;;;;;;;10.34;56.63;102363.00;4993129;28;97167;-69
2023/01/03 07:53:28;;;;;;;7.63;2.65;;;;;;;10.33;56.58;102366.53;4988774;28;100250;-69
2023/01/03 07:56:03;;;;;;;6.80;2.47;;;;;;;10.21;56.76;102369.28;4981232;28;101265;-69
2023/01/03 07:58:31;;;;;;;6.93;2.30;;;;;;;10.34;56.51;102371.81;4989654;28;96877;-69
2023/01/03 08:01:03;;;;;;;6.65;2.33;;;;;;;10.28;56.61;102370.97;4994741;28;96841;-70
2023/01/03 08:03:29;;;;;;;7.43;2.50;;;;;;;10.45;56.12;102371.69;4984995;28;99856;-69
2023/01/03 08:05:59;;;;;;;9.32;2.63;;;;;;;10.47;56.43;102374.34;4992737;28;98785;-70
2023/01/03 08:08:25;;;;;;;11.30;3.50;;;;;;;10.61;55.96;102365.38;4988357;28;96963;-72
2023/01/03 08:13:37;;;;;;;11.15;2.60;;;;;;;10.51;56.13;102386.63;4980911;28;97282;-69
2023/01/03 08:16:08;;;;;;;9.25;2.17;;;;;;;10.50;55.71;102395.47;4986462;28;99096;-70
2023/01/03 08:18:35;;;;;;;7.85;2.10;;;;;;;10.43;56.04;102391.13;4985396;28;97054;-69
2023/01/03 08:21:01;;;;;;;5.20;2.33;;;;;;;10.50;55.83;102398.94;4979160;28;98643;-69
2023/01/03 08:23:30;;;;;;;9.75;2.00;;;;;;;10.77;54.96;102401.34;4985074;28;102080;-70
2023/01/03 08:26:01;;;;;;;13.60;2.15;;;;;;;11.03;54.17;102400.19;4983423;28;98183;-70
2023/01/03 08:28:28;;;;;;;12.93;2.30;;;;;;;11.11;53.88;102401.84;4986030;28;97216;-70
2023/01/03 08:30:56;;;;;;;6.78;2.10;;;;;;;11.15;53.81;102406.25;4984965;28;97729;-71
2023/01/03 08:33:25;;;;;;;23.65;9.05;;;;;;;11.27;53.36;102401.69;4985241;28;101018;-70
2023/01/03 08:35:57;;;;;;;9.13;2.70;;;;;;;11.28;53.21;102404.31;4990429;28;98828;-70
2023/01/03 08:38:28;;;;;;;6.82;2.05;;;;;;;11.20;53.08;102414.09;4985514;28;97342;-70
2023/01/03 08:40:56;;;;;;;11.07;2.17;;;;;;;11.13;53.73;102412.44;4984293;28;97659;-72
2023/01/03 08:43:24;;;;;;;13.15;2.08;;;;;;;11.21;53.41;102407.94;4982409;28;99302;-70
2023/01/03 08:45:50;;;;;;;7.40;1.98;;;;;;;11.27;53.06;102413.16;4979227;28;99601;-71
2023/01/03 08:48:23;;;;;;;8.80;3.00;;;;;;;11.34;52.71;102409.53;4987165;28;96977;-71
2023/01/03 08:50:49;;;;;;;6.60;2.30;;;;;;;11.16;52.93;102417.66;4985121;28;98423;-71
2023/01/03 08:53:16;;;;;;;5.97;1.73;;;;;;;10.99;53.44;102411.69;4991933;28;101651;-71
2023/01/03 08:55:43;;;;;;;9.23;2.25;;;;;;;11.18;52.41;102416.75;4985842;28;98842;-70
2023/01/03 08:58:09;;;;;;;7.65;2.28;;;;;;;11.06;53.13;102421.31;4981248;28;96847;-69
2023/01/03 09:00:36;;;;;;;8.55;2.13;;;;;;;11.15;52.91;102424.75;4987679;28;96843;-70
2023/01/03 09:03:03;;;;;;;6.55;1.85;;;;;;;11.01;53.20;102436.38;4982012;28;98469;-70
2023/01/03 09:05:31;;;;;;;6.78;2.05;;;;;;;11.18;52.86;102429.13;4977478;28;98408;-71
2023/01/03 09:07:58;;;;;;;5.53;1.63;;;;;;;11.17;52.79;102432.66;4989118;28;96964;-70
2023/01/03 09:10:24;;;;;;;7.22;2.33;;;;;;;11.07;52.78;102438.94;4986746;28;97602;-70
2023/01/03 09:12:51;;;;;;;7.03;1.98;;;;;;;11.02;53.02;102444.31;4990060;28;101024;-71
2023/01/03 09:15:17;;;;;;;4.55;1.88;;;;;;;11.10;52.55;102446.84;4990489;28;98823;-71
2023/01/03 09:17:46;;;;;;;13.05;2.65;;;;;;;11.17;52.22;102453.81;4990132;28;97020;-70
2023/01/03 09:20:12;;;;;;;8.95;1.95;;;;;;;10.92;52.86;102454.97;4989488;28;97752;-70
2023/01/03 09:22:41;;;;;;;6.82;2.13;;;;;;;10.99;52.58;102454.91;4987930;28;98926;-71
2023/01/03 09:25:08;;;;;;;3.88;2.50;;;;;;;11.03;52.33;102458.38;4985212;28;98884;-71
2023/01/03 09:27:35;;;;;;;6.18;2.38;;;;;;;11.12;51.94;102460.94;4977855;28;96982;-71
2023/01/03 09:30:01;;;;;;;9.05;2.25;;;;;;;11.04;52.45;102466.31;4982568;28;97632;-70
2023/01/03 09:32:28;;;;;;;5.65;1.90;;;;;;;11.14;51.82;102459.16;4981077;28;99078;-71
2023/01/03 09:34:54;;;;;;;7.90;2.17;;;;;;;11.40;50.87;102459.75;4990274;28;99080;-71
2023/01/03 09:37:21;;;;;;;4.40;1.70;;;;;;;11.27;51.08;102455.50;4985692;28;97180;-70
2023/01/03 09:39:48;;;;;;;7.05;1.90;;;;;;;11.14;51.13;102461.81;4987887;28;96943;-69
2023/01/03 09:45:08;;;;;;;7.53;2.50;;;;;;;11.37;51.44;102465.06;4980174;28;98853;-74
2023/01/03 09:47:36;;;;;;;4.18;1.77;;;;;;;11.53;50.25;102458.69;4974870;28;97568;-74
2023/01/03 09:50:04;;;;;;;5.72;1.95;;;;;;;11.89;49.77;102456.47;4984570;28;97023;-75
2023/01/03 10:04:00;;;;;;;4.32;1.65;;;;;;;11.91;48.54;102452.94;4985563;28;98130;-73
2023/01/03 10:06:35;;;;;;;6.20;1.80;;;;;;;11.73;48.98;102458.44;4985531;28;98410;-73
2023/01/03 10:09:16;;;;;;;8.10;2.08;;;;;;;11.78;48.75;102458.41;4986805;28;98170;-73
2023/01/03 10:11:54;;;;;;;8.70;1.95;;;;;;;11.81;49.21;102461.03;4979260;28;97240;-73
2023/01/03 10:14:36;;;;;;;4.32;2.05;;;;;;;11.83;49.15;102456.56;4979402;28;98843;-72
2023/01/03 10:17:10;;;;;;;10.10;1.80;;;;;;;11.12;51.08;102463.59;4986364;28;100694;-72
2023/01/03 10:19:53;;;;;;;3.95;1.85;;;;;;;11.22;51.05;102465.25;4982072;28;97366;-72
2023/01/03 10:22:24;;;;;;;5.68;2.22;;;;;;;11.85;50.09;102466.25;4986160;28;98125;-73
2023/01/03 10:24:57;;;;;;;4.80;1.88;;;;;;;12.19;48.97;102464.00;4978793;28;99185;-73
2023/01/03 10:27:27;;;;;;;8.80;2.03;;;;;;;11.99;49.43;102463.41;4985285;28;98968;-72
2023/01/03 10:29:56;;;;;;;6.95;2.60;;;;;;;12.11;48.90;102467.66;4986725;28;97173;-73
2023/01/03 10:32:48;;;;;;;7.43;2.25;;;;;;;12.15;49.10;102472.00;4984723;28;97499;-73
2023/01/03 10:35:22;;;;;;;10.73;2.95;;;;;;;11.86;50.10;102467.13;4987712;28;99428;-73
2023/01/03 10:37:51;;;;;;;7.53;3.08;;;;;;;11.90;50.29;102463.53;4985265;28;99404;-73
2023/01/03 10:40:18;;;;;;;7.60;2.53;;;;;;;12.24;49.75;102467.47;4982405;28;96981;-73
2023/01/03 10:42:49;;;;;;;8.82;3.10;;;;;;;12.09;49.86;102464.16;4990840;28;96885;-73
2023/01/03 10:45:18;;;;;;;7.35;2.88;;;;;;;12.03;50.30;102470.41;4986644;28;102217;-73
2023/01/03 10:47:45;;;;;;;6.75;2.67;;;;;;;12.13;50.40;102465.88;4985612;28;100371;-73
2023/01/03 10:50:21;;;;;;;12.05;3.28;;;;;;;12.31;49.78;102466.47;4976210;28;98355;-73
2023/01/03 10:52:53;;;;;;;10.20;3.15;;;;;;;12.46;49.64;102464.47;4982228;28;97632;-73
2023/01/03 10:55:22;;;;;;;7.55;3.40;;;;;;;11.81;51.29;102458.38;4982621;28;98905;-72
2023/01/03 10:57:59;;;;;;;10.52;4.28;;;;;;;12.10;50.32;102464.13;4984923;28;102627;-72
2023/01/03 11:00:29;;;;;;;7.40;3.55;;;;;;;12.24;50.26;102462.16;4981710;28;97655;-73
2023/01/03 11:03:04;;;;;;;6.40;3.58;;;;;;;12.02;50.44;102457.19;4983623;28;97397;-73
2023/01/03 11:05:31;;;;;;;10.95;3.47;;;;;;;11.75;51.70;102458.47;4983943;28;99418;-73
2023/01/03 11:08:01;;;;;;;13.63;4.13;;;;;;;11.73;51.87;102461.09;4977514;28;98856;-72
2023/01/03 11:10:36;;;;;;;13.13;4.90;;;;;;;11.95;51.33;102459.03;4986332;28;96888;-73
2023/01/03 11:13:21;;;;;;;15.63;4.22;;;;;;;12.16;50.74;102460.50;4984333;28;97445;-72
2023/01/03 11:15:54;;;;;;;11.40;4.18;;;;;;;12.11;50.72;102457.94;4983339;28;99391;-73
2023/01/03 11:18:21;;;;;;;11.05;4.43;;;;;;;12.50;50.03;102459.09;4980334;28;99104;-73
2023/01/03 11:20:54;;;;;;;14.70;4.70;;;;;;;12.89;48.99;102446.91;4985160;28;97773;-72
2023/01/03 11:23:28;;;;;;;15.40;5.25;;;;;;;13.15;47.97;102457.97;4985241;28;98894;-73
2023/01/03 11:26:04;;;;;;;17.30;5.20;;;;;;;12.69;48.82;102441.97;4983547;28;99044;-72
2023/01/03 11:28:45;;;;;;;;;;;;;;;12.27;49.64;102459.44;4986772;28;99356;-72
2023/01/03 11:31:26;;;;;;;15.73;4.00;;;;;;;12.14;50.23;102457.03;4980892;28;98213;-72
2023/01/03 11:34:06;;;;;;;8.15;3.72;;;;;;;11.78;50.86;102458.41;4989253;28;96936;-74
2023/01/03 11:36:46;;;;;;;8.77;4.38;;;;;;;11.78;50.87;102453.13;4974754;28;99446;-72
2023/01/03 11:39:26;;;;;;;8.27;2.92;;;;;;;11.28;51.91;102462.53;4984828;28;98906;-72
2023/01/03 11:42:09;;;;;;;6.97;2.80;;;;;;;11.31;52.00;102451.91;4983151;28;97154;-72
2023/01/03 11:45:06;;;;;;;10.85;3.20;;;;;;;11.36;51.96;102459.78;4984479;28;97142;-72
2023/01/03 11:47:43;;;;;;;8.90;3.38;;;;;;;11.19;52.94;102465.28;4985333;28;98951;-73
2023/01/03 11:50:23;;;;;;;9.77;4.20;;;;;;;11.44;52.29;102456.16;4986771;28;99215;-74
2023/01/03 11:52:57;;;;;;;7.30;3.55;;;;;;;11.76;51.63;102455.78;4984591;28;97102;-73
2023/01/03 11:55:54;;;;;;;12.88;3.45;;;;;;;12.29;50.22;102460.31;4983092;28;96969;-73
2023/01/03 12:04:00;;;;;;;9.73;3.72;;;;;;;12.58;49.14;102458.97;5211493;22;97382;-75
2023/01/03 12:06:32;;;;;;;9.48;4.30;;;;;;;12.70;49.08;102453.47;4945685;28;97298;-77
2023/01/03 12:09:19;;;;;;;15.55;4.25;;;;;;;12.75;48.32;102440.97;4948440;28;98958;-76
2023/01/03 12:12:14;;;;;;;13.18;4.38;;;;;;;12.81;47.93;102443.53;4947761;28;99584;-76
2023/01/03 12:14:46;;;;;;;10.80;4.20;;;;;;;12.18;49.23;102451.66;4949064;28;97325;-74
2023/01/03 12:17:17;;;;;;;11.40;4.13;;;;;;;12.35;48.85;102446.97;4953549;28;97314;-75
2023/01/03 12:19:52;;;;;;;10.18;4.32;;;;;;;12.30;49.04;102456.75;4948596;28;97970;-76
2023/01/03 12:22:24;;;;;;;12.68;3.92;;;;;;;12.35;48.96;102457.56;4951280;28;98309;-76
2023/01/03 12:24:56;;;;;;;9.57;3.38;;;;;;;12.09;48.65;102454.44;4944923;28;97335;-75
2023/01/03 12:27:28;;;;;;;5.75;3.25;;;;;;;11.97;49.25;102454.59;4952615;28;97049;-74
2023/01/03 12:30:00;;;;;;;13.45;3.08;;;;;;;11.84;49.54;102451.25;4948191;28;98984;-76
2023/01/03 12:32:33;;;;;;;10.18;3.60;;;;;;;11.80;49.49;102453.97;4948792;28;99676;-76
2023/01/03 12:35:21;;;;;;;13.95;4.38;;;;;;;12.05;48.89;102452.72;4941563;28;99006;-74
2023/01/03 12:37:50;;;;;;;7.65;3.70;;;;;;;12.28;48.19;102455.91;4945581;28;97081;-77
2023/01/03 12:40:23;;;;;;;7.35;3.20;;;;;;;12.03;47.83;102448.34;4948641;28;101106;-77